Time;durP1;ratioP1;P1;durP2;ratioP2;P2;SDS_P1;SDS_P2;PMS_P1;PMS_P2;Temp;Humidity;BMP_temperature;BMP_pressure;BME280_temperature;BME280_humidity;BME280_pressure;Samples;Min_cycle;Max_cycle;Signal;HPM_P1;HPM_P2
2023/07/09 00:02:18;;;;;;;16.13;10.52;;;;;;;-146.27;78.30;79837.84;5065846;28;20067;-70
2023/07/09 00:04:43;;;;;;;13.43;9.35;;;;;;;-146.27;78.49;79837.84;5068377;28;20110;-70
2023/07/09 00:07:30;;;;;;;14.15;10.60;;;;;;;-146.27;78.57;79869.94;5070757;28;20392;-71
2023/07/09 00:09:56;;;;;;;16.02;10.25;;;;;;;-146.27;78.68;79859.91;5059834;28;20028;-71
2023/07/09 00:12:22;;;;;;;15.13;10.20;;;;;;;-146.27;78.57;79857.91;5074375;28;20024;-70
2023/07/09 00:14:47;;;;;;;14.93;9.98;;;;;;;-146.27;78.90;79865.94;5070912;28;20569;-70
2023/07/09 00:17:26;;;;;;;16.67;10.27;;;;;;;-146.27;79.04;79871.97;5064115;28;20031;-71
2023/07/09 00:19:52;;;;;;;14.35;10.27;;;;;;;-146.27;79.66;79811.72;5086298;28;20055;-71
2023/07/09 00:22:19;;;;;;;16.27;10.65;;;;;;;-146.27;79.50;79867.94;5067230;28;20029;-70
2023/07/09 00:24:50;;;;;;;14.25;10.80;;;;;;;-146.27;79.59;79861.94;5064377;28;20439;-71
2023/07/09 00:27:21;;;;;;;15.02;10.10;;;;;;;-146.27;79.49;79869.94;5079565;28;20029;-72
2023/07/09 00:29:46;;;;;;;14.27;10.40;;;;;;;-146.27;79.68;79849.88;5062192;28;20036;-71
2023/07/09 00:32:16;;;;;;;20.77;10.43;;;;;;;-146.27;79.82;79914.13;5068048;28;20017;-70
2023/07/09 00:34:48;;;;;;;13.57;9.73;;;;;;;-146.27;80.03;79896.06;5065268;28;20028;-70
2023/07/09 00:37:14;;;;;;;13.73;10.50;;;;;;;-146.27;80.24;79956.28;5065815;28;20012;-69
2023/07/09 00:39:40;;;;;;;16.83;9.88;;;;;;;-146.27;80.51;79978.38;5069665;28;20449;-70
2023/07/09 00:42:13;;;;;;;16.83;10.43;;;;;;;-146.27;81.17;80018.50;5064291;28;20110;-70
2023/07/09 00:44:43;;;;;;;15.68;10.30;;;;;;;-146.27;80.92;80002.44;5066580;28;20036;-70
2023/07/09 00:47:29;;;;;;;23.35;11.05;;;;;;;-146.27;80.91;80046.63;5071211;28;20083;-72
2023/07/09 00:50:09;;;;;;;15.07;11.00;;;;;;;-146.27;81.24;80056.66;5055711;28;20131;-71
2023/07/09 00:52:56;;;;;;;13.85;10.18;;;;;;;-146.27;81.72;80030.56;5065263;28;20025;-71
2023/07/09 00:55:31;;;;;;;17.45;10.43;;;;;;;-146.27;81.64;80082.75;5056251;28;20111;-71
2023/07/09 00:58:03;;;;;;;13.73;10.20;;;;;;;-146.27;82.01;80086.78;5069256;28;20028;-71
2023/07/09 01:00:35;;;;;;;15.45;11.25;;;;;;;-146.27;81.98;80084.78;5063329;28;20029;-71
2023/07/09 01:03:02;;;;;;;15.48;10.73;;;;;;;-146.27;82.01;80082.75;5069369;28;20036;-71
2023/07/09 01:05:27;;;;;;;14.93;10.20;;;;;;;-146.27;82.41;80130.94;5063032;28;20054;-70
2023/07/09 01:07:53;;;;;;;13.98;10.27;;;;;;;-146.27;82.38;80086.78;5097480;28;20028;-71
2023/07/09 01:10:20;;;;;;;18.58;10.68;;;;;;;-146.27;82.41;80126.94;5068450;28;20131;-71
2023/07/09 01:12:48;;;;;;;20.42;11.32;;;;;;;-146.27;82.36;80124.91;5084053;28;20087;-70
2023/07/09 01:15:15;;;;;;;17.92;10.93;;;;;;;-146.27;82.65;80132.94;5063463;28;20107;-71
2023/07/09 01:17:44;;;;;;;16.70;11.55;;;;;;;-146.27;83.17;80161.06;5061441;28;20158;-72
2023/07/09 01:20:16;;;;;;;20.52;12.02;;;;;;;-146.27;83.46;80157.03;5067083;28;20472;-71
2023/07/09 01:22:41;;;;;;;16.77;11.48;;;;;;;-146.27;83.44;80134.97;5069096;28;20050;-71
2023/07/09 01:25:08;;;;;;;17.58;11.27;;;;;;;-146.27;83.15;80108.84;5069131;28;20494;-71
2023/07/09 01:27:41;;;;;;;16.92;11.93;;;;;;;-146.27;83.50;80130.94;5061734;28;20075;-70
2023/07/09 01:30:11;;;;;;;17.08;12.05;;;;;;;-146.27;83.80;80094.81;5055098;28;20025;-71
2023/07/09 01:32:37;;;;;;;19.50;11.25;;;;;;;-146.27;83.67;80159.06;5069269;28;20412;-71
2023/07/09 01:35:06;;;;;;;17.48;11.63;;;;;;;-146.27;83.97;80155.03;5063623;28;20457;-71
2023/07/09 01:37:35;;;;;;;15.00;10.77;;;;;;;-146.27;84.26;80163.06;5058445;28;20414;-71
2023/07/09 01:40:01;;;;;;;19.55;11.50;;;;;;;-146.27;83.91;80124.91;5063706;28;20587;-72
2023/07/09 01:42:28;;;;;;;17.75;11.90;;;;;;;-146.27;84.20;80149.00;5066468;28;20050;-72
2023/07/09 01:44:55;;;;;;;16.30;11.07;;;;;;;-146.27;84.50;80167.09;5063098;28;20468;-71
2023/07/09 01:47:23;;;;;;;18.65;11.60;;;;;;;-146.27;84.47;80145.00;5064467;28;20402;-70
2023/07/09 01:49:49;;;;;;;15.40;10.60;;;;;;;-146.27;84.42;80181.13;5058692;28;20361;-70
2023/07/09 01:52:16;;;;;;;17.25;11.00;;;;;;;-146.27;84.66;80171.09;5060620;28;20029;-72
2023/07/09 01:54:46;;;;;;;16.00;11.82;;;;;;;-146.27;84.55;80088.78;5069385;28;20432;-71
2023/07/09 01:57:16;;;;;;;15.38;10.60;;;;;;;-146.27;84.51;80132.94;5075825;28;20025;-70
2023/07/09 01:59:41;;;;;;;13.73;10.52;;;;;;;-146.27;84.54;80183.13;5059096;28;20063;-70
2023/07/09 02:02:08;;;;;;;18.52;10.60;;;;;;;-146.27;85.11;80179.13;5064774;28;20040;-71
2023/07/09 02:04:34;;;;;;;16.25;11.40;;;;;;;-146.27;85.02;80183.13;5068807;28;20157;-70
2023/07/09 02:06:59;;;;;;;18.75;11.07;;;;;;;-146.27;85.50;80191.16;5066584;28;20484;-71
2023/07/09 02:09:25;;;;;;;14.70;11.23;;;;;;;-146.27;85.27;80195.19;5077646;28;20424;-71
2023/07/09 02:11:50;;;;;;;19.85;12.10;;;;;;;-146.27;85.38;80211.25;5064774;28;20048;-70
2023/07/09 02:14:15;;;;;;;14.50;10.52;;;;;;;-146.27;85.61;80213.25;5067565;28;20028;-70
2023/07/09 02:16:41;;;;;;;16.45;11.77;;;;;;;-146.27;85.73;80239.34;5062603;28;20477;-71
2023/07/09 02:19:07;;;;;;;19.73;10.90;;;;;;;-146.27;86.05;80289.56;5072729;28;20050;-70
2023/07/09 02:21:33;;;;;;;15.73;10.70;;;;;;;-146.27;86.70;80305.63;5068881;28;20025;-73
2023/07/09 02:23:58;;;;;;;15.40;10.73;;;;;;;-146.27;86.43;80307.63;5059879;28;20078;-73
2023/07/09 02:26:23;;;;;;;18.80;10.60;;;;;;;-146.27;86.70;80295.56;5060624;28;20128;-72
2023/07/09 02:28:49;;;;;;;17.15;10.93;;;;;;;-146.27;86.70;80303.59;5063238;28;20082;-72
2023/07/09 02:31:15;;;;;;;13.23;10.07;;;;;;;-146.27;86.80;80315.66;5067713;28;20068;-72
2023/07/09 02:33:41;;;;;;;17.30;11.23;;;;;;;-146.27;87.02;80287.53;5069330;28;20562;-72
2023/07/09 02:36:06;;;;;;;18.77;11.18;;;;;;;-146.27;87.05;80355.81;5073807;28;20154;-73
2023/07/09 02:38:31;;;;;;;16.95;10.13;;;;;;;-146.27;87.19;80341.75;5071036;28;20034;-72
2023/07/09 02:40:57;;;;;;;16.83;10.00;;;;;;;-146.27;87.74;80333.72;5074114;28;20159;-72
2023/07/09 02:43:22;;;;;;;16.27;10.82;;;;;;;-146.27;87.68;80379.91;5059631;28;20032;-70
2023/07/09 02:45:48;;;;;;;15.90;10.27;;;;;;;-146.27;87.64;80377.91;5061991;28;20387;-72
2023/07/09 02:48:13;;;;;;;13.60;10.23;;;;;;;-146.27;87.59;80359.81;5081673;28;20487;-70
2023/07/09 02:50:38;;;;;;;14.98;11.20;;;;;;;-146.27;87.64;80391.94;5062664;28;20024;-71
2023/07/09 02:53:04;;;;;;;16.55;10.48;;;;;;;-146.27;87.83;80399.97;5069176;28;20044;-70
2023/07/09 02:55:29;;;;;;;14.43;10.13;;;;;;;-146.27;88.36;80408.00;5068241;28;20020;-70
2023/07/09 02:57:55;;;;;;;13.07;10.32;;;;;;;-146.27;88.35;80460.22;5068886;28;20028;-70
2023/07/09 03:00:20;;;;;;;14.63;9.73;;;;;;;-146.27;88.08;80412.03;5068292;28;20119;-70
2023/07/09 03:02:45;;;;;;;12.73;10.52;;;;;;;-146.27;88.16;80458.22;5072625;28;20481;-71
2023/07/09 03:05:11;;;;;;;16.52;10.85;;;;;;;-146.27;88.07;80444.16;5068196;28;20060;-71
2023/07/09 03:07:36;;;;;;;19.52;10.73;;;;;;;-146.27;88.43;80393.97;5068856;28;20446;-72
2023/07/09 03:10:02;;;;;;;15.25;10.07;;;;;;;-146.27;88.60;80464.22;5069412;28;20384;-72
2023/07/09 03:12:27;;;;;;;14.63;10.57;;;;;;;-146.27;88.80;80434.13;5060464;28;20040;-71
2023/07/09 03:14:53;;;;;;;15.50;9.63;;;;;;;-146.27;88.48;80414.03;5062533;28;20024;-71
2023/07/09 03:17:18;;;;;;;22.13;10.43;;;;;;;-146.27;88.48;80426.09;5065786;28;20107;-71
2023/07/09 03:19:44;;;;;;;13.95;9.57;;;;;;;-146.27;88.47;80436.13;5072744;28;20516;-70
2023/07/09 03:22:09;;;;;;;17.50;11.13;;;;;;;-146.27;88.92;80442.16;5071993;28;20478;-70
2023/07/09 03:24:34;;;;;;;19.38;9.85;;;;;;;-146.27;89.06;80508.41;5072349;28;20024;-70
2023/07/09 03:27:00;;;;;;;15.52;10.13;;;;;;;-146.27;89.30;80508.41;5078925;28;20028;-71
2023/07/09 03:29:25;;;;;;;12.70;9.68;;;;;;;-146.27;89.50;80536.50;5068685;28;20066;-71
2023/07/09 03:31:50;;;;;;;14.88;10.13;;;;;;;-146.27;89.88;80542.53;5062677;28;20423;-70
2023/07/09 03:34:16;;;;;;;23.83;10.30;;;;;;;-146.27;90.09;80536.50;5072286;28;20033;-71
2023/07/09 03:36:41;;;;;;;15.80;10.07;;;;;;;-146.27;89.98;80560.59;5070489;28;20020;-71
2023/07/09 03:39:07;;;;;;;15.50;10.45;;;;;;;-146.27;90.12;80574.66;5072451;28;20098;-71
2023/07/09 03:41:33;;;;;;;14.57;10.77;;;;;;;-146.27;90.13;80524.47;5081169;28;20027;-72
2023/07/09 03:43:59;;;;;;;20.42;11.25;;;;;;;-146.27;90.56;80562.63;5081397;28;20070;-71
2023/07/09 03:46:24;;;;;;;15.65;10.77;;;;;;;-146.27;90.61;80578.69;5078012;28;20020;-73
2023/07/09 03:48:50;;;;;;;17.80;11.02;;;;;;;-146.27;90.39;80600.75;5079752;28;20429;-72
2023/07/09 03:51:16;;;;;;;16.45;10.93;;;;;;;-146.27;90.56;80600.75;5073668;28;20419;-71
2023/07/09 03:53:41;;;;;;;16.52;12.45;;;;;;;-146.27;90.56;80586.72;5084927;28;20021;-71
2023/07/09 03:56:07;;;;;;;15.68;11.35;;;;;;;-146.27;91.62;80604.78;5067359;28;20073;-72
2023/07/09 03:58:33;;;;;;;15.00;10.90;;;;;;;-146.27;90.24;80552.56;5074950;28;20071;-71
2023/07/09 04:00:58;;;;;;;14.88;11.05;;;;;;;-146.27;89.75;80570.66;5086343;28;20035;-71
2023/07/09 04:03:23;;;;;;;16.65;11.85;;;;;;;-146.27;90.13;80540.53;5072479;28;20039;-72
2023/07/09 04:05:50;;;;;;;15.10;11.63;;;;;;;-146.27;90.54;80534.50;5071700;28;20037;-72
2023/07/09 04:08:15;;;;;;;15.75;12.13;;;;;;;-146.27;90.53;80492.34;5071079;28;20103;-71
2023/07/09 04:10:41;;;;;;;16.88;12.43;;;;;;;-146.27;90.07;80480.28;5077046;28;20404;-71
2023/07/09 04:13:06;;;;;;;17.08;11.90;;;;;;;-146.27;90.10;80452.19;5069657;28;20399;-72
2023/07/09 04:15:32;;;;;;;15.52;11.35;;;;;;;-146.27;89.42;80416.03;5071145;28;20028;-71
2023/07/09 04:17:57;;;;;;;14.32;10.48;;;;;;;-146.27;89.79;80462.22;5051761;28;20477;-71
2023/07/09 04:20:23;;;;;;;17.33;11.80;;;;;;;-146.27;90.32;80470.25;5060353;28;20074;-73
2023/07/09 04:22:49;;;;;;;14.48;11.10;;;;;;;-146.27;89.71;80450.19;5054893;28;20021;-71
2023/07/09 04:25:15;;;;;;;19.15;12.77;;;;;;;-146.27;89.69;80416.03;5068204;28;20032;-71
2023/07/09 04:27:41;;;;;;;17.77;12.75;;;;;;;-146.27;89.18;80410.03;5079788;28;20131;-72
2023/07/09 04:30:12;;;;;;;17.90;11.60;;;;;;;-146.27;89.04;80395.97;5054053;28;20032;-72
2023/07/09 04:32:38;;;;;;;15.38;12.00;;;;;;;-146.27;90.10;80391.94;5068390;28;20109;-71
2023/07/09 04:35:06;;;;;;;17.05;11.73;;;;;;;-146.27;89.63;80371.88;5061836;28;20572;-72
2023/07/09 04:37:32;;;;;;;15.65;11.57;;;;;;;-146.27;89.40;80359.81;5070707;28;20304;-71
2023/07/09 04:39:57;;;;;;;16.63;12.52;;;;;;;-146.27;89.51;80379.91;5068496;28;20039;-70
2023/07/09 04:42:23;;;;;;;19.38;12.57;;;;;;;-146.27;89.59;80315.66;5086347;28;20029;-73
2023/07/09 04:44:48;;;;;;;17.98;13.75;;;;;;;-146.27;89.39;80331.72;5068779;28;20481;-72
2023/07/09 04:47:14;;;;;;;22.50;15.98;;;;;;;-146.27;89.44;80315.66;5054536;28;20029;-72
2023/07/09 04:49:40;;;;;;;21.10;16.60;;;;;;;-146.27;88.86;80273.50;5069839;28;20020;-71
2023/07/09 04:52:06;;;;;;;24.08;16.83;;;;;;;-146.27;88.64;80287.53;5072208;28;20028;-73
2023/07/09 04:54:32;;;;;;;29.23;21.88;;;;;;;-146.27;87.94;80287.53;5070766;28;20032;-71
2023/07/09 04:56:58;;;;;;;31.55;17.92;;;;;;;-146.27;87.15;80287.53;5069549;28;20031;-71
2023/07/09 04:59:24;;;;;;;30.10;21.70;;;;;;;-146.27;86.92;80253.41;5064558;28;20388;-71
2023/07/09 05:01:50;;;;;;;30.30;21.23;;;;;;;-146.27;86.57;80227.31;5070814;28;20040;-71
2023/07/09 05:04:16;;;;;;;30.73;21.92;;;;;;;-146.27;86.37;80233.34;5060058;28;20032;-71
2023/07/09 05:06:42;;;;;;;28.02;21.92;;;;;;;-146.27;86.42;80207.22;5071520;28;20028;-70
2023/07/09 05:09:08;;;;;;;31.45;24.20;;;;;;;-146.27;84.49;80185.16;5057159;28;20037;-72
2023/07/09 05:11:35;;;;;;;35.97;27.10;;;;;;;-146.27;84.04;80183.13;5058808;28;20090;-72
2023/07/09 05:14:01;;;;;;;33.47;26.70;;;;;;;-146.27;82.39;80163.06;5069596;28;20036;-71
2023/07/09 05:16:26;;;;;;;31.67;25.83;;;;;;;-146.27;81.41;80167.09;5054626;28;20032;-71
2023/07/09 05:18:52;;;;;;;32.65;23.75;;;;;;;-146.27;80.91;80231.31;5059986;28;20078;-71
2023/07/09 05:21:17;;;;;;;37.17;26.17;;;;;;;-146.27;80.45;80189.16;5084730;28;20032;-71
2023/07/09 05:23:42;;;;;;;32.65;25.75;;;;;;;-146.27;80.32;80231.31;5081222;28;20100;-72
2023/07/09 05:26:09;;;;;;;32.78;24.60;;;;;;;-146.27;80.14;80175.13;5085376;28;20024;-71
2023/07/09 05:28:34;;;;;;;32.65;25.33;;;;;;;-146.27;79.93;80193.19;5065448;28;20056;-71
2023/07/09 05:31:00;;;;;;;35.42;26.40;;;;;;;-146.27;79.80;80195.19;5069350;28;20487;-72
2023/07/09 05:33:25;;;;;;;35.47;27.70;;;;;;;-146.27;80.01;80173.09;5053725;28;20369;-72
2023/07/09 05:35:50;;;;;;;39.63;31.50;;;;;;;-146.27;78.73;80239.34;5068783;28;20392;-71
2023/07/09 05:38:16;;;;;;;39.55;30.95;;;;;;;-146.27;78.57;80171.09;5072339;28;20012;-72
2023/07/09 05:40:43;;;;;;;40.92;32.85;;;;;;;-146.27;78.41;80181.13;5073495;28;20182;-72
2023/07/09 05:43:09;;;;;;;45.50;32.38;;;;;;;-146.27;78.33;80128.94;5068870;28;20024;-72
2023/07/09 05:45:34;;;;;;;40.83;31.60;;;;;;;-146.27;78.41;80088.78;5065546;28;20033;-72
2023/07/09 05:48:00;;;;;;;42.42;30.25;;;;;;;-146.27;79.14;80104.84;5064677;28;20020;-72
2023/07/09 05:50:28;;;;;;;41.10;31.73;;;;;;;-146.27;78.05;80058.66;5057629;28;20028;-71
2023/07/09 05:52:53;;;;;;;41.67;30.75;;;;;;;-146.27;78.06;80014.50;5065895;28;20029;-73
2023/07/09 05:55:18;;;;;;;37.97;28.60;;;;;;;-146.27;77.98;79980.38;5067330;28;20031;-72
2023/07/09 05:57:44;;;;;;;35.72;28.42;;;;;;;-146.27;77.74;79974.34;5064607;28;20025;-72
2023/07/09 06:00:10;;;;;;;35.20;27.80;;;;;;;-146.27;77.23;79972.34;5065390;28;20669;-72
2023/07/09 06:02:35;;;;;;;33.22;26.70;;;;;;;-146.27;76.71;79906.09;5062069;28;20051;-72
2023/07/09 06:05:01;;;;;;;32.08;25.83;;;;;;;-146.27;76.22;79906.09;5068084;28;20032;-67
2023/07/09 06:07:27;;;;;;;38.58;23.65;;;;;;;-146.27;75.73;79886.00;5073023;28;20024;-67
2023/07/09 06:09:53;;;;;;;38.72;25.55;;;;;;;-146.27;74.56;79888.03;5073733;28;20027;-71
2023/07/09 06:12:19;;;;;;;31.90;23.73;;;;;;;-146.27;73.94;79851.88;5066073;28;20094;-73
2023/07/09 06:14:45;;;;;;;36.00;28.25;;;;;;;-146.27;74.96;79849.88;5075472;28;20028;-72
2023/07/09 06:17:10;;;;;;;35.80;28.30;;;;;;;-146.27;76.51;79821.78;5078129;28;20493;-72
2023/07/09 06:19:36;;;;;;;33.17;27.40;;;;;;;-146.27;74.50;79807.72;5097416;28;20036;-72
2023/07/09 06:22:02;;;;;;;33.63;26.55;;;;;;;-146.27;73.87;79829.81;5066048;28;20038;-72
2023/07/09 06:24:27;;;;;;;31.30;23.83;;;;;;;-146.27;73.55;79789.66;5066663;28;20487;-72
2023/07/09 06:26:52;;;;;;;33.40;25.33;;;;;;;-146.27;74.42;79767.56;5064976;28;20107;-73
2023/07/09 06:29:18;;;;;;;30.48;22.95;;;;;;;-146.27;74.41;79733.44;5067916;28;20031;-73
2023/07/09 06:31:43;;;;;;;36.20;26.73;;;;;;;-146.27;74.60;79787.66;5070016;28;20081;-73
2023/07/09 06:34:09;;;;;;;28.83;23.20;;;;;;;-146.27;75.54;79775.59;5071455;28;20033;-72
2023/07/09 06:36:35;;;;;;;31.60;22.95;;;;;;;-146.27;74.91;79799.69;5069273;28;20025;-72
2023/07/09 06:39:01;;;;;;;31.25;23.60;;;;;;;-146.27;74.91;79755.53;5070498;28;20071;-72
2023/07/09 06:41:27;;;;;;;28.75;21.13;;;;;;;-146.27;74.17;79687.28;5072931;28;20052;-72
2023/07/09 06:43:53;;;;;;;27.45;20.35;;;;;;;-146.27;74.33;79683.25;5068992;28;20033;-72
2023/07/09 06:46:19;;;;;;;27.55;20.35;;;;;;;-146.27;72.85;79741.47;5074477;28;20082;-71
2023/07/09 06:48:45;;;;;;;26.00;19.05;;;;;;;-146.27;72.43;79713.38;5069669;28;20035;-72
2023/07/09 06:51:11;;;;;;;27.73;17.83;;;;;;;-146.27;70.88;79761.53;5071416;28;20480;-72
2023/07/09 06:53:37;;;;;;;23.80;18.67;;;;;;;-146.27;69.44;79745.50;5073689;28;20107;-74
2023/07/09 06:56:03;;;;;;;21.33;16.08;;;;;;;-146.27;69.86;79717.38;5076034;28;20024;-72
2023/07/09 06:58:31;;;;;;;25.98;17.05;;;;;;;-146.27;69.13;79715.38;5070904;28;20094;-72
2023/07/09 07:00:57;;;;;;;21.50;16.70;;;;;;;-146.27;68.98;79729.44;5069777;28;20036;-73
2023/07/09 07:03:24;;;;;;;20.45;14.02;;;;;;;-146.27;68.47;79709.34;5071577;28;20048;-72
2023/07/09 07:05:53;;;;;;;20.27;14.82;;;;;;;-146.27;67.66;79733.44;5070020;28;20024;-72
2023/07/09 07:08:22;;;;;;;17.88;12.55;;;;;;;-146.27;67.93;79733.44;5070875;28;20028;-73
2023/07/09 07:10:49;;;;;;;18.67;11.90;;;;;;;-146.27;67.23;79719.38;5072082;28;20072;-74
2023/07/09 07:13:15;;;;;;;21.67;11.95;;;;;;;-146.27;67.34;79677.22;5091319;28;20552;-72
2023/07/09 07:15:40;;;;;;;17.52;10.88;;;;;;;-146.27;65.45;79641.09;5071433;28;20036;-73
2023/07/09 07:18:07;;;;;;;15.13;10.52;;;;;;;-146.27;65.28;79677.22;5073634;28;20020;-72
2023/07/09 07:20:33;;;;;;;15.68;10.40;;;;;;;-146.27;65.75;79604.97;5072605;28;20111;-73
2023/07/09 07:22:58;;;;;;;13.18;9.52;;;;;;;-146.27;65.01;79584.88;5071352;28;20024;-73
2023/07/09 07:25:25;;;;;;;16.20;9.90;;;;;;;-146.27;66.08;79512.63;5070122;28;20063;-74
2023/07/09 07:27:50;;;;;;;14.93;9.52;;;;;;;-146.27;66.84;79496.56;5071895;28;20020;-73
2023/07/09 07:30:16;;;;;;;13.75;8.55;;;;;;;-146.27;65.98;79446.38;5073133;28;20021;-72
2023/07/09 07:32:45;;;;;;;17.50;9.15;;;;;;;-146.27;66.48;79436.34;5071018;28;20120;-73
2023/07/09 07:35:10;;;;;;;14.95;9.02;;;;;;;-146.27;66.49;79416.28;5072242;28;20039;-73
2023/07/09 07:37:36;;;;;;;13.32;8.18;;;;;;;-146.27;66.69;79448.38;5073101;28;20468;-72
2023/07/09 07:40:01;;;;;;;11.20;7.70;;;;;;;-146.27;65.81;79430.31;5069861;28;20024;-73
2023/07/09 07:42:28;;;;;;;11.55;7.38;;;;;;;-146.27;66.29;79366.09;5080130;28;20031;-73
2023/07/09 07:44:53;;;;;;;10.45;7.20;;;;;;;-146.27;66.86;79327.94;5071478;28;20029;-73
2023/07/09 07:47:19;;;;;;;12.68;6.88;;;;;;;-146.27;66.53;79368.09;5069478;28;20021;-69
2023/07/09 07:49:44;;;;;;;11.43;6.43;;;;;;;-146.27;66.80;79315.91;5071882;28;20031;-69
2023/07/09 07:52:10;;;;;;;10.15;6.00;;;;;;;-146.27;67.22;79273.75;5072060;28;20028;-69
2023/07/09 07:54:35;;;;;;;9.27;5.22;;;;;;;-146.27;66.38;79311.91;5069033;28;20032;-71
2023/07/09 07:57:01;;;;;;;13.32;6.35;;;;;;;-146.27;66.06;79221.56;5071586;28;20040;-70
2023/07/09 07:59:27;;;;;;;9.50;5.85;;;;;;;-146.27;67.06;79171.38;5065891;28;20130;-70
2023/07/09 08:01:53;;;;;;;10.52;6.25;;;;;;;-146.27;66.04;79171.38;5079321;28;20020;-70
2023/07/09 08:04:18;;;;;;;16.20;5.63;;;;;;;-146.27;65.81;79133.25;5071665;28;20550;-69
2023/07/09 08:06:43;;;;;;;14.20;7.78;;;;;;;-146.27;64.99;79135.25;5070791;28;20055;-69
2023/07/09 08:09:09;;;;;;;13.48;6.88;;;;;;;-146.27;65.23;79113.19;5075971;28;20125;-70
2023/07/09 08:11:34;;;;;;;10.95;6.00;;;;;;;-146.27;66.20;79071.03;5059397;28;20129;-68
2023/07/09 08:14:00;;;;;;;7.35;5.18;;;;;;;-146.27;65.55;79107.16;5068821;28;20029;-69
2023/07/09 08:16:26;;;;;;;6.72;4.88;;;;;;;-146.27;65.45;79063.00;5069524;28;20567;-70
2023/07/09 08:18:54;;;;;;;7.13;5.63;;;;;;;-146.27;64.54;78996.75;5068857;28;20032;-69
2023/07/09 08:21:19;;;;;;;11.35;5.53;;;;;;;-146.27;65.33;78922.50;5070676;28;20052;-69
2023/07/09 08:23:45;;;;;;;8.32;4.53;;;;;;;-146.27;63.56;78922.50;5068459;28;20385;-69
2023/07/09 08:26:11;;;;;;;8.52;5.38;;;;;;;-146.27;64.40;78892.41;5069780;28;20085;-69
2023/07/09 08:28:37;;;;;;;11.43;5.85;;;;;;;-146.27;63.78;78902.44;5067566;28;20048;-69
2023/07/09 08:31:03;;;;;;;12.13;5.60;;;;;;;-146.27;64.92;78878.34;5061140;28;20025;-68
2023/07/09 08:33:29;;;;;;;9.70;5.03;;;;;;;-146.27;63.46;78960.63;5069013;28;20104;-69
2023/07/09 08:35:55;;;;;;;6.72;4.32;;;;;;;-146.27;62.94;78910.47;5071820;28;20024;-70
2023/07/09 08:38:21;;;;;;;9.10;4.50;;;;;;;-146.27;61.85;78872.31;5062045;28;20040;-69
2023/07/09 08:41:06;;;;;;;5.65;3.92;;;;;;;-146.27;63.87;78784.03;5074636;28;20037;-68
2023/07/09 08:43:44;;;;;;;8.60;4.53;;;;;;;-146.27;62.05;78745.88;5058628;28;20052;-68
2023/07/09 08:46:16;;;;;;;9.18;3.80;;;;;;;-146.27;61.83;78581.31;5066683;28;20028;-67
2023/07/09 08:48:46;;;;;;;7.20;3.90;;;;;;;-146.27;63.16;78563.25;5080744;28;20036;-68
2023/07/09 08:51:20;;;;;;;8.82;4.18;;;;;;;-146.27;61.51;78452.88;5066994;28;20040;-71
2023/07/09 08:53:53;;;;;;;6.28;3.47;;;;;;;-146.27;59.23;78489.00;5069775;28;20032;-72
2023/07/09 08:56:19;;;;;;;7.85;3.70;;;;;;;-146.27;58.21;78476.97;5073039;28;20020;-71
2023/07/09 08:58:46;;;;;;;5.28;3.42;;;;;;;-146.27;58.50;78404.72;5075334;28;20025;-71
2023/07/09 09:01:27;;;;;;;6.93;2.72;;;;;;;-146.27;58.60;78318.41;5063852;28;20488;-72
2023/07/09 09:04:00;;;;;;;4.55;2.58;;;;;;;-146.27;56.87;78336.47;5068174;28;20031;-72
2023/07/09 09:06:30;;;;;;;5.50;2.88;;;;;;;-146.27;56.66;78270.25;5065172;28;20033;-72
2023/07/09 09:09:24;;;;;;;7.88;3.15;;;;;;;-146.27;55.41;78250.19;5068782;28;20497;-72
2023/07/09 09:12:03;;;;;;;5.43;2.80;;;;;;;-146.27;55.81;78262.22;5066488;28;20044;-72
2023/07/09 09:14:34;;;;;;;5.40;2.83;;;;;;;-146.27;56.39;78274.28;5065260;28;20032;-72
2023/07/09 09:17:00;;;;;;;6.45;2.80;;;;;;;-146.27;56.08;78183.97;5065217;28;20548;-72
2023/07/09 09:19:36;;;;;;;3.95;2.38;;;;;;;-146.27;55.39;78131.78;5070270;28;20044;-72
2023/07/09 09:22:08;;;;;;;3.20;2.13;;;;;;;-146.27;54.81;78095.69;5062674;28;20028;-70
2023/07/09 09:25:15;;;;;;;4.38;2.30;;;;;;;-146.27;55.25;77991.34;5068163;28;20435;-71
2023/07/09 09:27:43;;;;;;;3.13;2.17;;;;;;;-146.27;52.57;78017.41;5076239;28;20028;-73
2023/07/09 09:30:18;;;;;;;3.67;2.22;;;;;;;-146.27;53.32;78005.38;5085110;28;20036;-74
2023/07/09 09:32:47;;;;;;;5.28;2.20;;;;;;;-146.27;53.04;78035.47;5075519;28;20020;-71
2023/07/09 09:35:19;;;;;;;3.35;1.80;;;;;;;-146.27;53.86;77935.16;5070923;28;20024;-73
2023/07/09 09:37:51;;;;;;;4.30;1.92;;;;;;;-146.27;53.81;77935.16;5076041;28;20031;-73
2023/07/09 09:40:23;;;;;;;5.18;2.20;;;;;;;-146.27;52.36;77862.91;5068457;28;20028;-72
2023/07/09 09:42:55;;;;;;;3.65;2.10;;;;;;;-146.27;54.38;77814.75;5055239;28;20122;-74
2023/07/09 09:45:28;;;;;;;5.93;1.92;;;;;;;-146.27;53.35;77959.22;5065616;28;20065;-71
2023/07/09 09:47:58;;;;;;;7.10;2.45;;;;;;;-146.27;52.39;77846.84;5073584;28;20024;-72
2023/07/09 09:50:27;;;;;;;2.83;2.35;;;;;;;-146.27;53.79;77790.69;5073772;28;20042;-72
2023/07/09 09:52:52;;;;;;;3.58;2.15;;;;;;;-146.27;52.83;77722.47;5062912;28;20043;-72
2023/07/09 09:55:22;;;;;;;3.78;2.15;;;;;;;-146.27;51.45;77774.63;5062689;28;20215;-73
2023/07/09 09:57:52;;;;;;;3.40;2.13;;;;;;;-146.27;51.06;77646.22;5072962;28;20120;-73
2023/07/09 10:00:22;;;;;;;4.10;2.03;;;;;;;-146.27;52.50;77626.16;5057964;28;21376;-74
2023/07/09 10:02:48;;;;;;;4.35;2.22;;;;;;;-146.27;52.01;77708.41;5070799;28;20028;-74
2023/07/09 10:05:24;;;;;;;4.13;2.17;;;;;;;-146.27;50.76;77730.47;5072885;28;20031;-73
2023/07/09 10:08:04;;;;;;;4.35;2.30;;;;;;;-146.27;54.22;77690.34;5061605;28;20029;-73
2023/07/09 10:10:32;;;;;;;3.70;2.13;;;;;;;-146.27;52.62;77640.19;5077450;28;20048;-73
2023/07/09 10:13:15;;;;;;;3.97;2.40;;;;;;;-146.27;55.38;77505.75;5070371;28;20046;-73
2023/07/09 10:15:47;;;;;;;4.10;2.08;;;;;;;-146.27;54.28;77403.44;5062796;28;20024;-74
2023/07/09 10:18:38;;;;;;;3.97;2.27;;;;;;;-146.27;52.81;77329.22;5071646;28;20327;-73
2023/07/09 10:21:25;;;;;;;5.70;2.58;;;;;;;-146.27;54.02;77325.19;5049822;28;20369;-73
2023/07/09 10:24:32;;;;;;;4.72;2.20;;;;;;;-146.27;52.53;77299.13;5052044;28;20671;-73
2023/07/09 10:27:19;;;;;;;4.90;2.47;;;;;;;-146.27;52.03;77220.88;5067932;28;20029;-74
2023/07/09 10:29:56;;;;;;;4.45;2.42;;;;;;;-146.27;53.18;77291.09;5074254;28;20550;-73
2023/07/09 10:32:36;;;;;;;4.80;2.38;;;;;;;-146.27;51.86;77291.09;5068973;28;20040;-73
2023/07/09 10:35:15;;;;;;;4.05;2.78;;;;;;;-146.27;52.05;77435.53;5068780;28;20050;-73
2023/07/09 10:37:43;;;;;;;4.95;2.30;;;;;;;-146.27;52.28;77305.13;5068286;28;20124;-70
2023/07/09 10:40:14;;;;;;;6.00;2.80;;;;;;;-146.27;53.21;77112.53;5069244;28;20036;-75
2023/07/09 10:42:52;;;;;;;6.50;2.13;;;;;;;-146.27;51.87;76986.16;5059443;28;20017;-75
2023/07/09 10:45:29;;;;;;;3.15;2.13;;;;;;;-146.27;50.29;76948.03;5078096;28;20412;-75
2023/07/09 10:48:12;;;;;;;6.68;3.03;;;;;;;-146.27;47.76;77032.28;5061276;28;20020;-76
2023/07/09 10:50:41;;;;;;;4.95;2.83;;;;;;;-146.27;47.09;77305.13;5075531;28;20066;-75
2023/07/09 10:53:31;;;;;;;4.63;2.50;;;;;;;-146.27;49.89;77210.84;5068201;28;20021;-76
2023/07/09 10:56:07;;;;;;;3.95;2.30;;;;;;;-146.27;51.77;77136.59;5070924;28;20024;-75
2023/07/09 10:58:46;;;;;;;4.90;2.47;;;;;;;-146.27;49.92;76895.88;5063992;28;20029;-75
2023/07/09 11:01:17;;;;;;;4.15;2.80;;;;;;;-146.27;48.32;76725.38;5065810;28;20036;-75
2023/07/09 11:03:52;;;;;;;5.97;2.65;;;;;;;-146.27;49.01;76526.78;5069450;28;20078;-76
2023/07/09 11:06:33;;;;;;;6.88;2.78;;;;;;;-146.27;46.35;76352.28;5059367;28;20391;-76
2023/07/09 11:09:00;;;;;;;6.30;2.60;;;;;;;-146.27;45.19;76362.31;5064825;28;20021;-75
2023/07/09 11:11:32;;;;;;;4.10;2.60;;;;;;;-146.27;44.74;76322.19;5066081;28;20487;-76
2023/07/09 11:14:16;;;;;;;5.68;2.47;;;;;;;-146.27;44.96;76448.53;5058117;28;20040;-73